sensor_id;sensor_type;location;lat;lon;timestamp;P1;durP1;ratioP1;P2;durP2;ratioP2
6850;SDS011;3464;42.728;23.296;2023-05-29T00:00:07;16.90;;;6.17;;
6850;SDS011;3464;42.728;23.296;2023-05-29T00:02:36;13.40;;;6.50;;
6850;SDS011;3464;42.728;23.296;2023-05-29T00:05:04;14.70;;;6.53;;
6850;SDS011;3464;42.728;23.296;2023-05-29T00:07:31;12.90;;;5.80;;
6850;SDS011;3464;42.728;23.296;2023-05-29T00:09:58;14.90;;;6.47;;
6850;SDS011;3464;42.728;23.296;2023-05-29T00:12:25;12.93;;;5.83;;
6850;SDS011;3464;42.728;23.296;2023-05-29T00:14:51;13.60;;;5.63;;
6850;SDS011;3464;42.728;23.296;2023-05-29T00:17:19;15.23;;;6.33;;
6850;SDS011;3464;42.728;23.296;2023-05-29T00:19:45;14.37;;;6.00;;
6850;SDS011;3464;42.728;23.296;2023-05-29T00:22:12;16.70;;;6.83;;
6850;SDS011;3464;42.728;23.296;2023-05-29T00:24:39;13.87;;;5.80;;
6850;SDS011;3464;42.728;23.296;2023-05-29T00:27:06;14.87;;;6.00;;
6850;SDS011;3464;42.728;23.296;2023-05-29T00:29:35;13.73;;;6.07;;
6850;SDS011;3464;42.728;23.296;2023-05-29T00:32:04;12.87;;;5.63;;
6850;SDS011;3464;42.728;23.296;2023-05-29T00:34:31;16.30;;;6.57;;
6850;SDS011;3464;42.728;23.296;2023-05-29T00:36:58;12.47;;;5.60;;
6850;SDS011;3464;42.728;23.296;2023-05-29T00:39:26;13.03;;;6.03;;
6850;SDS011;3464;42.728;23.296;2023-05-29T00:41:54;15.03;;;6.57;;
6850;SDS011;3464;42.728;23.296;2023-05-29T00:44:21;13.27;;;6.07;;
6850;SDS011;3464;42.728;23.296;2023-05-29T00:46:48;16.33;;;6.87;;
6850;SDS011;3464;42.728;23.296;2023-05-29T00:49:15;14.77;;;6.40;;
6850;SDS011;3464;42.728;23.296;2023-05-29T00:51:41;14.40;;;5.90;;
6850;SDS011;3464;42.728;23.296;2023-05-29T00:54:09;16.77;;;6.40;;
6850;SDS011;3464;42.728;23.296;2023-05-29T00:56:35;14.67;;;6.00;;
6850;SDS011;3464;42.728;23.296;2023-05-29T00:59:02;14.73;;;6.63;;
6850;SDS011;3464;42.728;23.296;2023-05-29T01:01:28;15.17;;;6.83;;
6850;SDS011;3464;42.728;23.296;2023-05-29T01:03:57;13.10;;;6.23;;
6850;SDS011;3464;42.728;23.296;2023-05-29T01:06:23;14.50;;;6.83;;
6850;SDS011;3464;42.728;23.296;2023-05-29T01:08:50;17.77;;;7.20;;
6850;SDS011;3464;42.728;23.296;2023-05-29T01:11:26;15.77;;;6.90;;
6850;SDS011;3464;42.728;23.296;2023-05-29T01:13:57;13.57;;;6.33;;
6850;SDS011;3464;42.728;23.296;2023-05-29T01:16:28;15.53;;;7.50;;
6850;SDS011;3464;42.728;23.296;2023-05-29T01:19:14;14.30;;;6.30;;
6850;SDS011;3464;42.728;23.296;2023-05-29T01:21:55;16.83;;;7.07;;
6850;SDS011;3464;42.728;23.296;2023-05-29T01:27:10;14.50;;;7.47;;
6850;SDS011;3464;42.728;23.296;2023-05-29T01:29:38;16.20;;;8.10;;
6850;SDS011;3464;42.728;23.296;2023-05-29T01:32:05;16.90;;;8.23;;
6850;SDS011;3464;42.728;23.296;2023-05-29T01:34:34;15.30;;;7.83;;
6850;SDS011;3464;42.728;23.296;2023-05-29T01:37:02;13.83;;;7.60;;
6850;SDS011;3464;42.728;23.296;2023-05-29T01:39:30;23.83;;;9.20;;
6850;SDS011;3464;42.728;23.296;2023-05-29T01:41:57;14.93;;;8.53;;
6850;SDS011;3464;42.728;23.296;2023-05-29T01:44:24;16.37;;;8.83;;
6850;SDS011;3464;42.728;23.296;2023-05-29T01:46:51;18.37;;;8.20;;
6850;SDS011;3464;42.728;23.296;2023-05-29T01:49:18;20.30;;;7.97;;
6850;SDS011;3464;42.728;23.296;2023-05-29T01:51:45;19.20;;;7.17;;
6850;SDS011;3464;42.728;23.296;2023-05-29T01:54:12;19.53;;;7.90;;
6850;SDS011;3464;42.728;23.296;2023-05-29T01:56:39;16.00;;;7.30;;
6850;SDS011;3464;42.728;23.296;2023-05-29T01:59:05;16.03;;;6.90;;
6850;SDS011;3464;42.728;23.296;2023-05-29T02:01:32;17.97;;;7.50;;
6850;SDS011;3464;42.728;23.296;2023-05-29T02:03:58;14.43;;;7.00;;
6850;SDS011;3464;42.728;23.296;2023-05-29T02:06:26;16.13;;;7.80;;
6850;SDS011;3464;42.728;23.296;2023-05-29T02:08:54;16.93;;;7.73;;
6850;SDS011;3464;42.728;23.296;2023-05-29T02:11:21;14.80;;;7.10;;
6850;SDS011;3464;42.728;23.296;2023-05-29T02:13:48;18.03;;;8.87;;
6850;SDS011;3464;42.728;23.296;2023-05-29T02:16:14;17.50;;;7.50;;
6850;SDS011;3464;42.728;23.296;2023-05-29T02:18:41;15.97;;;7.73;;
6850;SDS011;3464;42.728;23.296;2023-05-29T02:21:08;18.23;;;7.90;;
6850;SDS011;3464;42.728;23.296;2023-05-29T02:23:34;17.60;;;8.53;;
6850;SDS011;3464;42.728;23.296;2023-05-29T02:26:01;15.73;;;8.43;;
6850;SDS011;3464;42.728;23.296;2023-05-29T02:28:28;22.63;;;9.10;;
6850;SDS011;3464;42.728;23.296;2023-05-29T02:30:56;16.73;;;8.57;;
6850;SDS011;3464;42.728;23.296;2023-05-29T02:33:23;16.40;;;8.90;;
6850;SDS011;3464;42.728;23.296;2023-05-29T02:35:49;17.70;;;8.30;;
6850;SDS011;3464;42.728;23.296;2023-05-29T02:38:16;15.13;;;8.30;;
6850;SDS011;3464;42.728;23.296;2023-05-29T02:40:44;19.10;;;9.07;;
6850;SDS011;3464;42.728;23.296;2023-05-29T02:43:12;18.90;;;8.23;;
6850;SDS011;3464;42.728;23.296;2023-05-29T02:45:38;18.60;;;8.80;;
6850;SDS011;3464;42.728;23.296;2023-05-29T02:48:05;17.63;;;8.43;;
6850;SDS011;3464;42.728;23.296;2023-05-29T02:50:32;15.23;;;8.20;;
6850;SDS011;3464;42.728;23.296;2023-05-29T02:52:59;16.67;;;8.37;;
6850;SDS011;3464;42.728;23.296;2023-05-29T02:55:25;15.30;;;7.77;;
6850;SDS011;3464;42.728;23.296;2023-05-29T02:57:53;17.50;;;8.00;;
6850;SDS011;3464;42.728;23.296;2023-05-29T03:00:20;18.03;;;7.77;;
6850;SDS011;3464;42.728;23.296;2023-05-29T03:02:48;18.63;;;8.20;;
6850;SDS011;3464;42.728;23.296;2023-05-29T03:05:15;20.30;;;7.80;;
6850;SDS011;3464;42.728;23.296;2023-05-29T03:07:42;17.73;;;7.97;;
6850;SDS011;3464;42.728;23.296;2023-05-29T03:10:09;18.03;;;8.57;;
6850;SDS011;3464;42.728;23.296;2023-05-29T03:12:35;18.37;;;8.67;;
6850;SDS011;3464;42.728;23.296;2023-05-29T03:15:03;35.57;;;8.43;;
6850;SDS011;3464;42.728;23.296;2023-05-29T03:17:30;19.50;;;7.20;;
6850;SDS011;3464;42.728;23.296;2023-05-29T03:19:58;19.50;;;7.97;;
6850;SDS011;3464;42.728;23.296;2023-05-29T03:22:25;20.40;;;8.20;;
6850;SDS011;3464;42.728;23.296;2023-05-29T03:24:52;19.03;;;8.13;;
6850;SDS011;3464;42.728;23.296;2023-05-29T03:27:18;15.80;;;8.00;;
6850;SDS011;3464;42.728;23.296;2023-05-29T03:29:45;17.00;;;8.10;;
6850;SDS011;3464;42.728;23.296;2023-05-29T03:32:12;15.80;;;8.20;;
6850;SDS011;3464;42.728;23.296;2023-05-29T03:34:39;17.37;;;8.20;;
6850;SDS011;3464;42.728;23.296;2023-05-29T03:37:06;19.40;;;8.27;;
6850;SDS011;3464;42.728;23.296;2023-05-29T03:39:32;18.50;;;8.97;;
6850;SDS011;3464;42.728;23.296;2023-05-29T03:41:59;20.00;;;8.93;;
6850;SDS011;3464;42.728;23.296;2023-05-29T03:44:27;19.83;;;8.77;;
6850;SDS011;3464;42.728;23.296;2023-05-29T03:46:57;22.80;;;9.33;;
6850;SDS011;3464;42.728;23.296;2023-05-29T03:49:24;19.57;;;8.13;;
6850;SDS011;3464;42.728;23.296;2023-05-29T03:51:51;18.10;;;8.90;;
6850;SDS011;3464;42.728;23.296;2023-05-29T03:54:18;20.03;;;9.23;;
6850;SDS011;3464;42.728;23.296;2023-05-29T03:56:48;24.10;;;9.10;;
6850;SDS011;3464;42.728;23.296;2023-05-29T03:59:15;19.30;;;7.33;;
6850;SDS011;3464;42.728;23.296;2023-05-29T04:01:42;23.57;;;8.07;;
6850;SDS011;3464;42.728;23.296;2023-05-29T04:04:10;25.60;;;9.20;;
6850;SDS011;3464;42.728;23.296;2023-05-29T04:06:38;23.03;;;9.00;;
6850;SDS011;3464;42.728;23.296;2023-05-29T04:09:05;18.80;;;8.40;;
6850;SDS011;3464;42.728;23.296;2023-05-29T04:11:33;25.40;;;8.53;;
6850;SDS011;3464;42.728;23.296;2023-05-29T04:14:00;17.20;;;8.33;;
6850;SDS011;3464;42.728;23.296;2023-05-29T04:16:28;20.93;;;8.30;;
6850;SDS011;3464;42.728;23.296;2023-05-29T04:18:55;19.30;;;8.00;;
6850;SDS011;3464;42.728;23.296;2023-05-29T04:21:22;18.53;;;7.63;;
6850;SDS011;3464;42.728;23.296;2023-05-29T04:23:51;17.30;;;7.83;;
6850;SDS011;3464;42.728;23.296;2023-05-29T04:26:19;21.70;;;8.30;;
6850;SDS011;3464;42.728;23.296;2023-05-29T04:28:45;18.47;;;7.77;;
6850;SDS011;3464;42.728;23.296;2023-05-29T04:31:12;17.90;;;7.83;;
6850;SDS011;3464;42.728;23.296;2023-05-29T04:33:39;17.10;;;7.60;;
6850;SDS011;3464;42.728;23.296;2023-05-29T04:36:06;20.93;;;7.40;;
6850;SDS011;3464;42.728;23.296;2023-05-29T04:38:34;20.23;;;7.57;;
6850;SDS011;3464;42.728;23.296;2023-05-29T04:41:02;21.13;;;8.30;;
6850;SDS011;3464;42.728;23.296;2023-05-29T04:43:29;19.50;;;7.53;;
6850;SDS011;3464;42.728;23.296;2023-05-29T04:45:56;18.80;;;6.77;;
6850;SDS011;3464;42.728;23.296;2023-05-29T04:48:23;20.20;;;7.90;;
6850;SDS011;3464;42.728;23.296;2023-05-29T04:50:49;20.40;;;7.30;;
6850;SDS011;3464;42.728;23.296;2023-05-29T04:53:16;15.37;;;7.00;;
6850;SDS011;3464;42.728;23.296;2023-05-29T04:55:43;19.97;;;7.70;;
6850;SDS011;3464;42.728;23.296;2023-05-29T04:58:09;17.70;;;6.83;;
6850;SDS011;3464;42.728;23.296;2023-05-29T05:00:38;19.10;;;7.70;;
6850;SDS011;3464;42.728;23.296;2023-05-29T05:03:04;16.83;;;6.80;;
6850;SDS011;3464;42.728;23.296;2023-05-29T05:05:31;15.30;;;6.63;;
6850;SDS011;3464;42.728;23.296;2023-05-29T05:07:58;23.30;;;7.40;;
6850;SDS011;3464;42.728;23.296;2023-05-29T05:10:26;16.17;;;6.93;;
6850;SDS011;3464;42.728;23.296;2023-05-29T05:12:53;18.37;;;7.50;;
6850;SDS011;3464;42.728;23.296;2023-05-29T05:15:21;20.20;;;7.63;;
6850;SDS011;3464;42.728;23.296;2023-05-29T05:17:48;18.47;;;6.93;;
6850;SDS011;3464;42.728;23.296;2023-05-29T05:20:15;18.07;;;7.17;;
6850;SDS011;3464;42.728;23.296;2023-05-29T05:22:42;27.93;;;7.73;;
6850;SDS011;3464;42.728;23.296;2023-05-29T05:25:09;19.60;;;6.70;;
6850;SDS011;3464;42.728;23.296;2023-05-29T05:27:39;25.60;;;7.43;;
6850;SDS011;3464;42.728;23.296;2023-05-29T05:30:07;15.63;;;6.90;;
6850;SDS011;3464;42.728;23.296;2023-05-29T05:32:35;17.63;;;6.10;;
6850;SDS011;3464;42.728;23.296;2023-05-29T05:35:04;18.60;;;6.37;;
6850;SDS011;3464;42.728;23.296;2023-05-29T05:37:30;21.77;;;6.33;;
6850;SDS011;3464;42.728;23.296;2023-05-29T05:39:57;15.80;;;6.70;;
6850;SDS011;3464;42.728;23.296;2023-05-29T05:42:24;19.47;;;6.60;;
6850;SDS011;3464;42.728;23.296;2023-05-29T05:44:54;13.50;;;5.43;;
6850;SDS011;3464;42.728;23.296;2023-05-29T05:47:20;13.73;;;6.20;;
6850;SDS011;3464;42.728;23.296;2023-05-29T05:49:47;20.23;;;5.67;;
6850;SDS011;3464;42.728;23.296;2023-05-29T05:52:13;19.50;;;6.43;;
6850;SDS011;3464;42.728;23.296;2023-05-29T05:54:40;17.27;;;5.90;;
6850;SDS011;3464;42.728;23.296;2023-05-29T05:57:08;17.33;;;5.50;;
6850;SDS011;3464;42.728;23.296;2023-05-29T05:59:35;25.13;;;6.40;;
6850;SDS011;3464;42.728;23.296;2023-05-29T06:02:02;23.00;;;6.40;;
6850;SDS011;3464;42.728;23.296;2023-05-29T06:04:30;14.43;;;5.70;;
6850;SDS011;3464;42.728;23.296;2023-05-29T06:06:58;17.50;;;5.50;;
6850;SDS011;3464;42.728;23.296;2023-05-29T06:09:24;16.93;;;5.43;;
6850;SDS011;3464;42.728;23.296;2023-05-29T06:11:52;16.30;;;5.17;;
6850;SDS011;3464;42.728;23.296;2023-05-29T06:14:19;18.77;;;5.40;;
6850;SDS011;3464;42.728;23.296;2023-05-29T06:16:46;16.40;;;4.90;;
6850;SDS011;3464;42.728;23.296;2023-05-29T06:19:13;18.60;;;4.90;;
6850;SDS011;3464;42.728;23.296;2023-05-29T06:21:40;15.60;;;5.23;;
6850;SDS011;3464;42.728;23.296;2023-05-29T06:24:06;15.50;;;5.30;;
6850;SDS011;3464;42.728;23.296;2023-05-29T06:26:33;14.77;;;5.47;;
6850;SDS011;3464;42.728;23.296;2023-05-29T06:29:00;15.53;;;6.10;;
6850;SDS011;3464;42.728;23.296;2023-05-29T06:31:26;16.60;;;5.60;;
6850;SDS011;3464;42.728;23.296;2023-05-29T06:33:54;18.03;;;5.13;;
6850;SDS011;3464;42.728;23.296;2023-05-29T06:36:22;15.87;;;4.63;;
6850;SDS011;3464;42.728;23.296;2023-05-29T06:38:50;16.23;;;4.87;;
6850;SDS011;3464;42.728;23.296;2023-05-29T06:41:18;18.43;;;5.30;;
6850;SDS011;3464;42.728;23.296;2023-05-29T06:43:45;13.23;;;4.50;;
6850;SDS011;3464;42.728;23.296;2023-05-29T06:46:14;11.80;;;4.00;;
6850;SDS011;3464;42.728;23.296;2023-05-29T06:48:41;11.93;;;4.40;;
6850;SDS011;3464;42.728;23.296;2023-05-29T06:51:10;13.10;;;3.70;;
6850;SDS011;3464;42.728;23.296;2023-05-29T06:53:37;11.30;;;3.60;;
6850;SDS011;3464;42.728;23.296;2023-05-29T06:56:06;12.27;;;3.87;;
6850;SDS011;3464;42.728;23.296;2023-05-29T06:58:35;12.73;;;3.90;;
6850;SDS011;3464;42.728;23.296;2023-05-29T07:01:02;11.97;;;3.30;;
6850;SDS011;3464;42.728;23.296;2023-05-29T07:03:28;12.47;;;3.53;;
6850;SDS011;3464;42.728;23.296;2023-05-29T07:05:55;12.57;;;3.13;;
6850;SDS011;3464;42.728;23.296;2023-05-29T07:08:23;10.87;;;3.43;;
6850;SDS011;3464;42.728;23.296;2023-05-29T07:10:50;10.53;;;2.93;;
6850;SDS011;3464;42.728;23.296;2023-05-29T07:13:16;10.97;;;3.03;;
6850;SDS011;3464;42.728;23.296;2023-05-29T07:15:44;10.50;;;3.20;;
6850;SDS011;3464;42.728;23.296;2023-05-29T07:18:11;10.60;;;3.10;;
6850;SDS011;3464;42.728;23.296;2023-05-29T07:20:37;11.43;;;3.43;;
6850;SDS011;3464;42.728;23.296;2023-05-29T07:23:04;11.50;;;2.90;;
6850;SDS011;3464;42.728;23.296;2023-05-29T07:25:30;13.03;;;3.20;;
6850;SDS011;3464;42.728;23.296;2023-05-29T07:27:57;12.00;;;2.90;;
6850;SDS011;3464;42.728;23.296;2023-05-29T07:30:26;9.60;;;2.10;;
6850;SDS011;3464;42.728;23.296;2023-05-29T07:32:54;10.13;;;2.07;;
6850;SDS011;3464;42.728;23.296;2023-05-29T07:35:21;8.97;;;2.10;;
6850;SDS011;3464;42.728;23.296;2023-05-29T07:37:49;11.57;;;2.33;;
6850;SDS011;3464;42.728;23.296;2023-05-29T07:40:16;15.17;;;2.70;;
6850;SDS011;3464;42.728;23.296;2023-05-29T07:42:43;10.83;;;2.07;;
6850;SDS011;3464;42.728;23.296;2023-05-29T07:45:10;9.30;;;1.90;;
6850;SDS011;3464;42.728;23.296;2023-05-29T07:47:36;10.90;;;2.47;;
6850;SDS011;3464;42.728;23.296;2023-05-29T07:50:04;9.63;;;2.27;;
6850;SDS011;3464;42.728;23.296;2023-05-29T07:52:32;9.90;;;2.33;;
6850;SDS011;3464;42.728;23.296;2023-05-29T07:54:58;11.77;;;2.47;;
6850;SDS011;3464;42.728;23.296;2023-05-29T07:57:27;9.87;;;2.30;;
6850;SDS011;3464;42.728;23.296;2023-05-29T07:59:54;11.17;;;2.00;;
6850;SDS011;3464;42.728;23.296;2023-05-29T08:02:20;11.70;;;2.50;;
6850;SDS011;3464;42.728;23.296;2023-05-29T08:04:47;10.73;;;2.30;;
6850;SDS011;3464;42.728;23.296;2023-05-29T08:07:13;8.73;;;2.10;;
6850;SDS011;3464;42.728;23.296;2023-05-29T08:09:40;10.03;;;2.00;;
6850;SDS011;3464;42.728;23.296;2023-05-29T08:12:07;9.83;;;1.80;;
6850;SDS011;3464;42.728;23.296;2023-05-29T08:14:33;10.53;;;2.60;;
6850;SDS011;3464;42.728;23.296;2023-05-29T08:17:01;10.40;;;2.63;;
6850;SDS011;3464;42.728;23.296;2023-05-29T08:19:31;14.13;;;3.07;;
6850;SDS011;3464;42.728;23.296;2023-05-29T08:22:02;14.63;;;2.97;;
6850;SDS011;3464;42.728;23.296;2023-05-29T08:24:53;11.23;;;2.80;;
6850;SDS011;3464;42.728;23.296;2023-05-29T08:27:37;12.00;;;2.70;;
6850;SDS011;3464;42.728;23.296;2023-05-29T08:30:04;12.83;;;2.63;;
6850;SDS011;3464;42.728;23.296;2023-05-29T08:32:35;10.40;;;2.80;;
6850;SDS011;3464;42.728;23.296;2023-05-29T08:35:02;11.30;;;2.73;;
6850;SDS011;3464;42.728;23.296;2023-05-29T08:37:32;12.43;;;3.90;;
6850;SDS011;3464;42.728;23.296;2023-05-29T08:40:09;10.50;;;3.00;;
6850;SDS011;3464;42.728;23.296;2023-05-29T08:42:45;11.63;;;3.50;;
6850;SDS011;3464;42.728;23.296;2023-05-29T08:45:13;9.83;;;3.00;;
6850;SDS011;3464;42.728;23.296;2023-05-29T08:47:44;11.67;;;3.87;;
6850;SDS011;3464;42.728;23.296;2023-05-29T08:50:11;14.23;;;3.27;;
6850;SDS011;3464;42.728;23.296;2023-05-29T08:52:38;12.60;;;4.40;;
6850;SDS011;3464;42.728;23.296;2023-05-29T08:55:06;12.93;;;3.70;;
6850;SDS011;3464;42.728;23.296;2023-05-29T08:57:35;13.93;;;3.90;;
6850;SDS011;3464;42.728;23.296;2023-05-29T09:00:08;10.40;;;2.93;;
6850;SDS011;3464;42.728;23.296;2023-05-29T09:05:44;11.90;;;3.40;;
6850;SDS011;3464;42.728;23.296;2023-05-29T09:08:21;11.07;;;2.93;;
6850;SDS011;3464;42.728;23.296;2023-05-29T09:10:49;12.03;;;3.20;;
6850;SDS011;3464;42.728;23.296;2023-05-29T09:13:21;10.63;;;3.00;;
6850;SDS011;3464;42.728;23.296;2023-05-29T09:15:49;12.70;;;3.43;;
6850;SDS011;3464;42.728;23.296;2023-05-29T09:18:16;10.40;;;3.10;;
6850;SDS011;3464;42.728;23.296;2023-05-29T09:20:43;13.73;;;3.37;;
6850;SDS011;3464;42.728;23.296;2023-05-29T09:23:10;12.30;;;3.60;;
6850;SDS011;3464;42.728;23.296;2023-05-29T09:25:41;10.33;;;3.13;;
6850;SDS011;3464;42.728;23.296;2023-05-29T09:28:10;11.80;;;3.70;;
6850;SDS011;3464;42.728;23.296;2023-05-29T09:30:38;10.43;;;3.40;;
6850;SDS011;3464;42.728;23.296;2023-05-29T09:33:06;10.50;;;3.20;;
6850;SDS011;3464;42.728;23.296;2023-05-29T09:35:32;11.40;;;3.50;;
6850;SDS011;3464;42.728;23.296;2023-05-29T09:37:58;11.33;;;3.40;;
6850;SDS011;3464;42.728;23.296;2023-05-29T09:40:29;13.67;;;3.77;;
6850;SDS011;3464;42.728;23.296;2023-05-29T09:43:01;10.40;;;3.37;;
6850;SDS011;3464;42.728;23.296;2023-05-29T09:45:30;11.77;;;3.53;;
6850;SDS011;3464;42.728;23.296;2023-05-29T09:47:58;10.60;;;3.13;;
6850;SDS011;3464;42.728;23.296;2023-05-29T09:50:26;11.37;;;4.00;;
6850;SDS011;3464;42.728;23.296;2023-05-29T09:52:55;11.13;;;3.40;;
6850;SDS011;3464;42.728;23.296;2023-05-29T09:55:21;11.97;;;3.70;;
6850;SDS011;3464;42.728;23.296;2023-05-29T09:57:49;10.93;;;3.50;;
6850;SDS011;3464;42.728;23.296;2023-05-29T10:00:16;10.90;;;3.60;;
6850;SDS011;3464;42.728;23.296;2023-05-29T10:02:42;11.00;;;3.57;;
6850;SDS011;3464;42.728;23.296;2023-05-29T10:05:09;11.97;;;4.00;;
6850;SDS011;3464;42.728;23.296;2023-05-29T10:07:36;11.33;;;4.30;;
6850;SDS011;3464;42.728;23.296;2023-05-29T10:10:04;12.00;;;4.47;;
6850;SDS011;3464;42.728;23.296;2023-05-29T10:12:32;13.40;;;3.67;;
6850;SDS011;3464;42.728;23.296;2023-05-29T10:14:59;10.80;;;3.00;;
6850;SDS011;3464;42.728;23.296;2023-05-29T10:17:28;12.20;;;4.30;;
6850;SDS011;3464;42.728;23.296;2023-05-29T10:19:54;11.77;;;3.43;;
6850;SDS011;3464;42.728;23.296;2023-05-29T10:22:20;11.10;;;3.80;;
6850;SDS011;3464;42.728;23.296;2023-05-29T10:24:48;11.10;;;3.57;;
6850;SDS011;3464;42.728;23.296;2023-05-29T10:27:15;11.03;;;3.60;;
6850;SDS011;3464;42.728;23.296;2023-05-29T10:29:43;12.27;;;3.60;;
6850;SDS011;3464;42.728;23.296;2023-05-29T10:32:21;11.47;;;3.50;;
6850;SDS011;3464;42.728;23.296;2023-05-29T10:35:09;11.80;;;4.10;;
6850;SDS011;3464;42.728;23.296;2023-05-29T10:37:47;11.93;;;3.77;;
6850;SDS011;3464;42.728;23.296;2023-05-29T10:40:16;11.73;;;3.60;;
6850;SDS011;3464;42.728;23.296;2023-05-29T10:42:46;14.03;;;4.00;;
6850;SDS011;3464;42.728;23.296;2023-05-29T10:47:52;10.90;;;3.63;;
6850;SDS011;3464;42.728;23.296;2023-05-29T10:50:34;11.50;;;3.90;;
6850;SDS011;3464;42.728;23.296;2023-05-29T10:53:01;14.33;;;3.63;;
6850;SDS011;3464;42.728;23.296;2023-05-29T10:58:05;11.20;;;3.40;;
6850;SDS011;3464;42.728;23.296;2023-05-29T11:00:33;14.80;;;4.03;;
6850;SDS011;3464;42.728;23.296;2023-05-29T11:03:03;14.40;;;3.30;;
6850;SDS011;3464;42.728;23.296;2023-05-29T11:05:32;10.40;;;3.30;;
6850;SDS011;3464;42.728;23.296;2023-05-29T11:08:00;10.93;;;3.20;;
6850;SDS011;3464;42.728;23.296;2023-05-29T11:13:04;11.77;;;3.70;;
6850;SDS011;3464;42.728;23.296;2023-05-29T11:15:31;13.10;;;3.60;;
6850;SDS011;3464;42.728;23.296;2023-05-29T11:18:07;13.57;;;4.13;;
6850;SDS011;3464;42.728;23.296;2023-05-29T11:20:36;14.43;;;3.77;;
6850;SDS011;3464;42.728;23.296;2023-05-29T11:23:03;12.30;;;3.20;;
6850;SDS011;3464;42.728;23.296;2023-05-29T11:25:32;15.77;;;3.87;;
6850;SDS011;3464;42.728;23.296;2023-05-29T11:27:58;14.23;;;3.70;;
6850;SDS011;3464;42.728;23.296;2023-05-29T11:30:24;12.57;;;3.50;;
6850;SDS011;3464;42.728;23.296;2023-05-29T11:32:51;12.17;;;3.57;;
6850;SDS011;3464;42.728;23.296;2023-05-29T11:35:19;16.03;;;4.17;;
6850;SDS011;3464;42.728;23.296;2023-05-29T11:37:45;12.37;;;4.00;;
6850;SDS011;3464;42.728;23.296;2023-05-29T11:40:12;14.77;;;3.93;;
6850;SDS011;3464;42.728;23.296;2023-05-29T11:42:42;14.80;;;3.83;;
6850;SDS011;3464;42.728;23.296;2023-05-29T11:45:13;10.40;;;3.40;;
6850;SDS011;3464;42.728;23.296;2023-05-29T11:50:30;15.43;;;3.80;;
6850;SDS011;3464;42.728;23.296;2023-05-29T11:53:08;13.60;;;5.00;;
6850;SDS011;3464;42.728;23.296;2023-05-29T11:55:37;10.63;;;3.50;;
6850;SDS011;3464;42.728;23.296;2023-05-29T11:58:07;11.97;;;3.70;;
6850;SDS011;3464;42.728;23.296;2023-05-29T12:00:35;13.17;;;3.70;;
6850;SDS011;3464;42.728;23.296;2023-05-29T12:03:02;11.90;;;3.83;;
6850;SDS011;3464;42.728;23.296;2023-05-29T12:05:29;12.73;;;3.40;;
6850;SDS011;3464;42.728;23.296;2023-05-29T12:07:55;11.60;;;3.90;;
6850;SDS011;3464;42.728;23.296;2023-05-29T12:10:22;12.43;;;4.10;;
6850;SDS011;3464;42.728;23.296;2023-05-29T12:12:51;14.97;;;4.00;;
6850;SDS011;3464;42.728;23.296;2023-05-29T12:15:18;10.73;;;3.30;;
6850;SDS011;3464;42.728;23.296;2023-05-29T12:17:45;10.63;;;3.40;;
6850;SDS011;3464;42.728;23.296;2023-05-29T12:20:13;10.90;;;3.27;;
6850;SDS011;3464;42.728;23.296;2023-05-29T12:22:47;12.80;;;3.30;;
6850;SDS011;3464;42.728;23.296;2023-05-29T12:25:18;11.60;;;3.40;;
6850;SDS011;3464;42.728;23.296;2023-05-29T12:27:44;14.20;;;3.87;;
6850;SDS011;3464;42.728;23.296;2023-05-29T12:30:12;12.53;;;3.20;;
6850;SDS011;3464;42.728;23.296;2023-05-29T12:32:40;11.33;;;3.00;;
6850;SDS011;3464;42.728;23.296;2023-05-29T12:35:10;10.30;;;3.23;;
6850;SDS011;3464;42.728;23.296;2023-05-29T12:37:55;11.63;;;3.07;;
6850;SDS011;3464;42.728;23.296;2023-05-29T12:40:23;13.50;;;3.30;;
6850;SDS011;3464;42.728;23.296;2023-05-29T12:42:54;15.50;;;3.80;;
6850;SDS011;3464;42.728;23.296;2023-05-29T12:45:23;12.57;;;3.03;;
6850;SDS011;3464;42.728;23.296;2023-05-29T12:47:52;11.47;;;3.23;;
6850;SDS011;3464;42.728;23.296;2023-05-29T12:50:20;14.40;;;3.23;;
6850;SDS011;3464;42.728;23.296;2023-05-29T12:52:53;12.23;;;3.20;;
6850;SDS011;3464;42.728;23.296;2023-05-29T12:55:21;12.80;;;3.40;;
6850;SDS011;3464;42.728;23.296;2023-05-29T12:57:48;16.07;;;3.70;;
6850;SDS011;3464;42.728;23.296;2023-05-29T13:00:15;11.87;;;3.70;;
6850;SDS011;3464;42.728;23.296;2023-05-29T13:02:44;10.77;;;3.63;;
6850;SDS011;3464;42.728;23.296;2023-05-29T13:05:22;13.40;;;3.70;;
6850;SDS011;3464;42.728;23.296;2023-05-29T13:07:51;12.27;;;3.27;;
6850;SDS011;3464;42.728;23.296;2023-05-29T13:10:21;12.10;;;3.40;;
6850;SDS011;3464;42.728;23.296;2023-05-29T13:12:51;12.60;;;4.10;;
6850;SDS011;3464;42.728;23.296;2023-05-29T13:15:21;12.40;;;3.97;;
6850;SDS011;3464;42.728;23.296;2023-05-29T13:17:50;11.47;;;3.60;;
6850;SDS011;3464;42.728;23.296;2023-05-29T13:20:17;11.27;;;3.90;;
6850;SDS011;3464;42.728;23.296;2023-05-29T13:22:45;14.10;;;4.23;;
6850;SDS011;3464;42.728;23.296;2023-05-29T13:25:12;15.07;;;4.30;;
6850;SDS011;3464;42.728;23.296;2023-05-29T13:27:41;10.67;;;3.40;;
6850;SDS011;3464;42.728;23.296;2023-05-29T13:30:06;13.00;;;3.70;;
6850;SDS011;3464;42.728;23.296;2023-05-29T13:32:34;10.17;;;2.20;;
6850;SDS011;3464;42.728;23.296;2023-05-29T13:35:02;9.80;;;1.70;;
6850;SDS011;3464;42.728;23.296;2023-05-29T13:37:29;8.53;;;1.47;;
6850;SDS011;3464;42.728;23.296;2023-05-29T13:39:56;8.83;;;1.50;;
6850;SDS011;3464;42.728;23.296;2023-05-29T13:42:24;9.73;;;1.50;;
6850;SDS011;3464;42.728;23.296;2023-05-29T13:44:52;8.53;;;1.60;;
6850;SDS011;3464;42.728;23.296;2023-05-29T13:47:19;9.37;;;1.50;;
6850;SDS011;3464;42.728;23.296;2023-05-29T13:49:46;8.73;;;1.80;;
6850;SDS011;3464;42.728;23.296;2023-05-29T13:52:13;11.40;;;1.97;;
6850;SDS011;3464;42.728;23.296;2023-05-29T13:54:41;8.40;;;1.63;;
6850;SDS011;3464;42.728;23.296;2023-05-29T13:57:07;10.80;;;1.77;;
6850;SDS011;3464;42.728;23.296;2023-05-29T13:59:34;10.13;;;2.40;;
6850;SDS011;3464;42.728;23.296;2023-05-29T14:02:01;10.20;;;1.80;;
6850;SDS011;3464;42.728;23.296;2023-05-29T14:04:28;14.10;;;1.90;;
6850;SDS011;3464;42.728;23.296;2023-05-29T14:06:57;8.30;;;1.50;;
6850;SDS011;3464;42.728;23.296;2023-05-29T14:12:52;9.57;;;1.90;;
6850;SDS011;3464;42.728;23.296;2023-05-29T14:15:41;8.40;;;1.60;;
6850;SDS011;3464;42.728;23.296;2023-05-29T14:18:09;11.53;;;2.07;;
6850;SDS011;3464;42.728;23.296;2023-05-29T14:20:37;7.90;;;1.40;;
6850;SDS011;3464;42.728;23.296;2023-05-29T14:23:04;8.90;;;1.60;;
6850;SDS011;3464;42.728;23.296;2023-05-29T14:25:30;10.37;;;1.70;;
6850;SDS011;3464;42.728;23.296;2023-05-29T14:27:57;11.03;;;1.93;;
6850;SDS011;3464;42.728;23.296;2023-05-29T14:30:25;9.90;;;1.90;;
6850;SDS011;3464;42.728;23.296;2023-05-29T14:32:55;9.00;;;1.60;;
6850;SDS011;3464;42.728;23.296;2023-05-29T14:35:25;9.43;;;1.63;;
6850;SDS011;3464;42.728;23.296;2023-05-29T14:37:56;9.80;;;1.90;;
6850;SDS011;3464;42.728;23.296;2023-05-29T14:40:23;9.53;;;1.80;;
6850;SDS011;3464;42.728;23.296;2023-05-29T14:42:57;9.70;;;1.93;;
6850;SDS011;3464;42.728;23.296;2023-05-29T14:45:24;10.07;;;2.30;;
6850;SDS011;3464;42.728;23.296;2023-05-29T14:47:56;10.73;;;2.23;;
6850;SDS011;3464;42.728;23.296;2023-05-29T14:50:23;12.23;;;1.90;;
6850;SDS011;3464;42.728;23.296;2023-05-29T14:52:57;10.60;;;2.10;;
6850;SDS011;3464;42.728;23.296;2023-05-29T14:55:32;9.43;;;2.50;;
6850;SDS011;3464;42.728;23.296;2023-05-29T14:58:01;10.90;;;2.40;;
6850;SDS011;3464;42.728;23.296;2023-05-29T15:00:31;11.93;;;2.60;;
6850;SDS011;3464;42.728;23.296;2023-05-29T15:02:57;10.10;;;2.40;;
6850;SDS011;3464;42.728;23.296;2023-05-29T15:05:26;8.87;;;2.17;;
6850;SDS011;3464;42.728;23.296;2023-05-29T15:07:56;10.23;;;2.43;;
6850;SDS011;3464;42.728;23.296;2023-05-29T15:10:26;9.90;;;2.40;;
6850;SDS011;3464;42.728;23.296;2023-05-29T15:12:53;12.67;;;2.60;;